Time;durP1;ratioP1;P1;durP2;ratioP2;P2;SDS_P1;SDS_P2;PMS_P1;PMS_P2;Temp;Humidity;BMP_temperature;BMP_pressure;BME280_temperature;BME280_humidity;BME280_pressure;Samples;Min_cycle;Max_cycle;Signal;HPM_P1;HPM_P2
2021/11/29 00:01:44;;;;;;;23.20;16.80;;;;;;;;;;5038781;28;20439;-66
2021/11/29 00:04:11;;;;;;;25.00;18.23;;;;;;;;;;5040182;28;21035;-66
2021/11/29 00:06:38;;;;;;;27.17;18.37;;;;;;;;;;5039790;28;20447;-66
2021/11/29 00:09:05;;;;;;;27.50;17.37;;;;;;;;;;5039390;28;20451;-63
2021/11/29 00:11:32;;;;;;;25.07;17.97;;;;;;;;;;5047667;28;21103;-66
2021/11/29 00:13:58;;;;;;;27.53;18.60;;;;;;;;;;5046328;28;20440;-67
2021/11/29 00:16:25;;;;;;;24.17;17.73;;;;;;;;;;5048000;28;20451;-67
2021/11/29 00:18:52;;;;;;;26.37;18.00;;;;;;;;;;5049242;28;20474;-66
2021/11/29 00:21:19;;;;;;;27.27;18.47;;;;;;;;;;5049437;28;20431;-67
2021/11/29 00:23:46;;;;;;;27.47;18.07;;;;;;;;;;5048777;28;20447;-68
2021/11/29 00:26:14;;;;;;;20.10;15.33;;;;;;;;;;5048998;28;20894;-69
2021/11/29 00:28:42;;;;;;;21.93;16.00;;;;;;;;;;5036558;28;20439;-66
2021/11/29 00:31:09;;;;;;;26.37;17.03;;;;;;;;;;5037347;28;20454;-63
2021/11/29 00:33:37;;;;;;;23.47;15.77;;;;;;;;;;5035991;28;20545;-68
2021/11/29 00:36:04;;;;;;;23.80;16.57;;;;;;;;;;5038533;28;20461;-66
2021/11/29 00:38:31;;;;;;;22.90;15.87;;;;;;;;;;5039990;28;20518;-67
2021/11/29 00:40:58;;;;;;;22.47;15.63;;;;;;;;;;5049342;28;20423;-68
2021/11/29 00:43:24;;;;;;;24.80;16.73;;;;;;;;;;5039229;28;20474;-68
2021/11/29 00:45:51;;;;;;;25.70;17.07;;;;;;;;;;5037785;28;20479;-64
2021/11/29 00:48:18;;;;;;;23.20;15.93;;;;;;;;;;5037196;28;20439;-66
2021/11/29 00:50:45;;;;;;;23.90;15.63;;;;;;;;;;5037710;28;20519;-64
2021/11/29 00:53:11;;;;;;;24.27;16.63;;;;;;;;;;5039749;28;20457;-62
2021/11/29 00:55:39;;;;;;;21.90;16.23;;;;;;;;;;5047966;28;20443;-66
2021/11/29 00:58:07;;;;;;;22.50;16.17;;;;;;;;;;5047257;28;20423;-64
2021/11/29 01:00:34;;;;;;;25.43;16.40;;;;;;;;;;5048442;28;20444;-64
2021/11/29 01:03:02;;;;;;;24.63;16.77;;;;;;;;;;5029339;28;20596;-64
2021/11/29 01:05:30;;;;;;;23.17;15.17;;;;;;;;;;5027156;28;20434;-64
2021/11/29 01:07:58;;;;;;;20.43;15.07;;;;;;;;;;5030265;28;21341;-64
2021/11/29 01:10:28;;;;;;;21.37;15.57;;;;;;;;;;5036708;28;20495;-66
2021/11/29 01:12:55;;;;;;;23.43;16.53;;;;;;;;;;5041148;28;20812;-66
2021/11/29 01:15:23;;;;;;;20.83;14.93;;;;;;;;;;5037490;28;20548;-66
2021/11/29 01:17:50;;;;;;;24.87;15.80;;;;;;;;;;5037109;28;21152;-67
2021/11/29 01:20:17;;;;;;;21.10;15.47;;;;;;;;;;5036983;28;21110;-67
2021/11/29 01:22:45;;;;;;;21.73;15.30;;;;;;;;;;5045280;28;20439;-64
2021/11/29 01:25:12;;;;;;;20.27;14.97;;;;;;;;;;5048963;28;20439;-67
2021/11/29 01:27:39;;;;;;;22.37;15.10;;;;;;;;;;5048075;28;20443;-65
2021/11/29 01:30:06;;;;;;;23.13;15.60;;;;;;;;;;5039981;28;20443;-63
2021/11/29 01:32:33;;;;;;;24.40;16.20;;;;;;;;;;5043272;28;20443;-65
2021/11/29 01:35:00;;;;;;;23.37;17.27;;;;;;;;;;5051975;28;20435;-66
2021/11/29 01:37:27;;;;;;;22.57;16.20;;;;;;;;;;5051589;28;20435;-66
2021/11/29 01:39:53;;;;;;;22.33;15.50;;;;;;;;;;5051299;28;20490;-65
2021/11/29 01:42:20;;;;;;;23.03;15.93;;;;;;;;;;5050321;28;20442;-67
2021/11/29 01:44:47;;;;;;;22.33;17.03;;;;;;;;;;5040487;28;20884;-67
2021/11/29 01:47:14;;;;;;;23.10;16.47;;;;;;;;;;5049523;28;20446;-67
2021/11/29 01:49:40;;;;;;;23.43;16.43;;;;;;;;;;5040599;28;21251;-64
2021/11/29 01:52:07;;;;;;;25.73;16.93;;;;;;;;;;5050745;28;20508;-66
2021/11/29 01:54:34;;;;;;;21.43;15.70;;;;;;;;;;5050620;28;20976;-68
2021/11/29 01:57:00;;;;;;;21.97;15.20;;;;;;;;;;5050034;28;20541;-68
2021/11/29 01:59:27;;;;;;;21.07;15.87;;;;;;;;;;5045106;28;20482;-64
2021/11/29 02:01:54;;;;;;;21.60;16.53;;;;;;;;;;5053416;28;20458;-66
2021/11/29 02:04:21;;;;;;;26.03;16.77;;;;;;;;;;5041773;28;20443;-66
2021/11/29 02:06:48;;;;;;;25.67;16.47;;;;;;;;;;5039574;28;21144;-65
2021/11/29 02:09:15;;;;;;;24.27;17.00;;;;;;;;;;5050744;28;20443;-67
2021/11/29 02:11:41;;;;;;;25.73;16.87;;;;;;;;;;5049908;28;20472;-66
2021/11/29 02:14:09;;;;;;;24.77;17.17;;;;;;;;;;5044342;28;20468;-63
2021/11/29 02:16:36;;;;;;;27.13;16.70;;;;;;;;;;5051377;28;20441;-63
2021/11/29 02:19:04;;;;;;;24.70;16.87;;;;;;;;;;5050848;28;20552;-68
2021/11/29 02:21:32;;;;;;;21.53;16.07;;;;;;;;;;5050689;28;20443;-66
2021/11/29 02:24:06;;;;;;;22.43;15.43;;;;;;;;;;5051073;28;20554;-69
2021/11/29 02:26:34;;;;;;;25.73;16.07;;;;;;;;;;5051367;28;20434;-68
2021/11/29 02:29:04;;;;;;;24.60;16.07;;;;;;;;;;5039869;28;20508;-68
2021/11/29 02:31:33;;;;;;;26.23;16.77;;;;;;;;;;5049945;28;20427;-64
2021/11/29 02:34:05;;;;;;;25.83;16.77;;;;;;;;;;5050310;28;21012;-65
2021/11/29 02:36:31;;;;;;;25.17;16.47;;;;;;;;;;5051354;28;20439;-68
2021/11/29 02:38:58;;;;;;;25.00;15.87;;;;;;;;;;5049869;28;20809;-66
2021/11/29 02:41:25;;;;;;;27.23;17.20;;;;;;;;;;5050512;28;20442;-66
2021/11/29 02:43:53;;;;;;;25.90;16.50;;;;;;;;;;5040183;28;20438;-66
2021/11/29 02:46:19;;;;;;;22.43;16.97;;;;;;;;;;5039035;28;20435;-65
2021/11/29 02:48:47;;;;;;;21.37;15.87;;;;;;;;;;5039125;28;20470;-65
2021/11/29 02:51:26;;;;;;;23.43;16.07;;;;;;;;;;5038590;28;20445;-64
2021/11/29 02:53:55;;;;;;;22.13;16.37;;;;;;;;;;5045591;28;20825;-65
2021/11/29 02:56:22;;;;;;;23.70;16.30;;;;;;;;;;5050307;28;20497;-67
2021/11/29 02:58:49;;;;;;;27.27;17.40;;;;;;;;;;5039937;28;20475;-68
2021/11/29 03:01:16;;;;;;;23.47;15.60;;;;;;;;;;5057024;28;20439;-69
2021/11/29 03:03:46;;;;;;;22.83;16.80;;;;;;;;;;5041620;28;20501;-69
2021/11/29 03:06:13;;;;;;;21.13;15.80;;;;;;;;;;5050726;28;20497;-68
2021/11/29 03:08:41;;;;;;;23.47;16.93;;;;;;;;;;5048973;28;21017;-68
2021/11/29 03:11:08;;;;;;;25.33;16.93;;;;;;;;;;5050182;28;20435;-66
2021/11/29 03:13:35;;;;;;;21.57;15.70;;;;;;;;;;5042396;28;20440;-64
2021/11/29 03:16:02;;;;;;;23.40;16.47;;;;;;;;;;5037863;28;20512;-64
2021/11/29 03:18:36;;;;;;;23.23;15.33;;;;;;;;;;5040249;28;20443;-65
2021/11/29 03:21:03;;;;;;;20.53;15.80;;;;;;;;;;5041319;28;20443;-63
2021/11/29 03:23:30;;;;;;;20.27;14.63;;;;;;;;;;5037438;28;20447;-66
2021/11/29 03:25:57;;;;;;;23.93;15.60;;;;;;;;;;5050251;28;20458;-65
2021/11/29 03:28:24;;;;;;;22.67;15.80;;;;;;;;;;5042902;28;20547;-66
2021/11/29 03:30:51;;;;;;;20.53;15.87;;;;;;;;;;5037263;28;20490;-63
2021/11/29 03:33:18;;;;;;;20.30;15.47;;;;;;;;;;5022946;28;20451;-65
2021/11/29 03:35:45;;;;;;;21.47;14.33;;;;;;;;;;5039300;28;20455;-67
2021/11/29 03:38:12;;;;;;;20.93;15.17;;;;;;;;;;5040443;28;20473;-66
2021/11/29 03:40:39;;;;;;;20.17;15.10;;;;;;;;;;5039776;28;20474;-66
2021/11/29 03:43:05;;;;;;;20.67;14.43;;;;;;;;;;5048717;28;20991;-67
2021/11/29 03:45:32;;;;;;;21.47;13.33;;;;;;;;;;5047464;28;20439;-68
2021/11/29 03:47:59;;;;;;;17.87;13.47;;;;;;;;;;5048573;28;21003;-66
2021/11/29 03:50:26;;;;;;;11.53;7.03;;;;;;;;;;5048746;28;20510;-65
2021/11/29 03:52:53;;;;;;;8.20;6.23;;;;;;;;;;5048415;28;20435;-67
2021/11/29 03:55:19;;;;;;;5.63;4.07;;;;;;;;;;5049114;28;20443;-68
2021/11/29 03:57:46;;;;;;;5.50;3.00;;;;;;;;;;5048876;28;20469;-66
2021/11/29 04:00:14;;;;;;;4.37;3.03;;;;;;;;;;5047104;28;20465;-66
2021/11/29 04:02:41;;;;;;;4.83;4.30;;;;;;;;;;5042844;28;20579;-66
2021/11/29 04:05:08;;;;;;;5.40;3.57;;;;;;;;;;5037276;28;20466;-65
2021/11/29 04:07:35;;;;;;;5.27;4.03;;;;;;;;;;5038150;28;21161;-65
2021/11/29 04:10:03;;;;;;;4.50;3.50;;;;;;;;;;5040648;28;20979;-64
2021/11/29 04:12:30;;;;;;;5.37;3.33;;;;;;;;;;5049109;28;20445;-69
2021/11/29 04:14:57;;;;;;;5.23;3.90;;;;;;;;;;5038090;28;20439;-66
2021/11/29 04:17:23;;;;;;;6.20;4.53;;;;;;;;;;5039049;28;20521;-67
2021/11/29 04:19:50;;;;;;;5.20;4.53;;;;;;;;;;5037370;28;21020;-67
2021/11/29 04:22:18;;;;;;;7.20;5.27;;;;;;;;;;5047451;28;20435;-69
2021/11/29 04:24:46;;;;;;;7.20;5.10;;;;;;;;;;5047575;28;21031;-67
2021/11/29 04:27:13;;;;;;;10.10;8.07;;;;;;;;;;5048851;28;20458;-68
2021/11/29 04:29:43;;;;;;;9.87;6.50;;;;;;;;;;5038015;28;20440;-68
2021/11/29 04:32:10;;;;;;;8.67;5.60;;;;;;;;;;5039745;28;20447;-68
2021/11/29 04:34:37;;;;;;;10.53;6.57;;;;;;;;;;5038694;28;20439;-66
2021/11/29 04:37:04;;;;;;;5.37;3.80;;;;;;;;;;5036634;28;20473;-66
2021/11/29 04:39:31;;;;;;;5.83;3.47;;;;;;;;;;5041997;28;20993;-67
2021/11/29 04:41:59;;;;;;;7.23;4.63;;;;;;;;;;5048232;28;20525;-65
2021/11/29 04:44:25;;;;;;;6.33;4.73;;;;;;;;;;5038242;28;20445;-67
2021/11/29 04:46:52;;;;;;;10.07;6.53;;;;;;;;;;5052199;28;20442;-66
2021/11/29 04:49:19;;;;;;;11.00;7.73;;;;;;;;;;5036518;28;21147;-64
2021/11/29 04:51:46;;;;;;;13.20;8.53;;;;;;;;;;5037395;28;20447;-65
2021/11/29 04:54:13;;;;;;;12.60;9.43;;;;;;;;;;5039050;28;20466;-63
2021/11/29 04:56:40;;;;;;;14.93;10.07;;;;;;;;;;5033040;28;20826;-66
2021/11/29 04:59:07;;;;;;;17.03;10.87;;;;;;;;;;5028212;28;20498;-71
2021/11/29 05:01:34;;;;;;;15.23;10.60;;;;;;;;;;5042209;28;20434;-67
2021/11/29 05:04:01;;;;;;;14.70;10.50;;;;;;;;;;5052487;28;20442;-66
2021/11/29 05:06:28;;;;;;;13.80;10.50;;;;;;;;;;5053431;28;20453;-66
2021/11/29 05:08:55;;;;;;;16.07;10.73;;;;;;;;;;5030498;28;20473;-63
2021/11/29 05:11:21;;;;;;;15.93;10.67;;;;;;;;;;5032927;28;20456;-66
2021/11/29 05:13:48;;;;;;;14.83;11.07;;;;;;;;;;5031429;28;20444;-64
2021/11/29 05:16:16;;;;;;;16.70;10.20;;;;;;;;;;5031853;28;20461;-64
2021/11/29 05:18:43;;;;;;;13.90;10.10;;;;;;;;;;5030731;28;20440;-66
2021/11/29 05:21:10;;;;;;;13.37;10.00;;;;;;;;;;5031804;28;20597;-65
2021/11/29 05:23:37;;;;;;;12.40;9.87;;;;;;;;;;5032112;28;20446;-65
2021/11/29 05:26:03;;;;;;;12.83;8.20;;;;;;;;;;5032266;28;20474;-66
2021/11/29 05:28:31;;;;;;;10.50;7.20;;;;;;;;;;5030748;28;20424;-65
2021/11/29 05:30:57;;;;;;;10.47;7.63;;;;;;;;;;5031707;28;20466;-61
2021/11/29 05:33:25;;;;;;;10.87;8.23;;;;;;;;;;5012258;28;20825;-65
2021/11/29 05:35:52;;;;;;;10.50;7.27;;;;;;;;;;5011623;28;20786;-67
2021/11/29 05:38:18;;;;;;;11.10;8.13;;;;;;;;;;5012081;28;20451;-65
2021/11/29 05:40:45;;;;;;;8.77;5.73;;;;;;;;;;5012308;28;20483;-64
2021/11/29 05:43:12;;;;;;;8.77;5.73;;;;;;;;;;5011471;28;20502;-62
2021/11/29 05:45:40;;;;;;;9.97;7.13;;;;;;;;;;5011150;28;20433;-65
2021/11/29 05:48:07;;;;;;;8.87;6.83;;;;;;;;;;5010006;28;20456;-64
2021/11/29 05:50:34;;;;;;;30.57;25.40;;;;;;;;;;5012662;28;20898;-67
2021/11/29 05:53:01;;;;;;;286.20;251.70;;;;;;;;;;5012353;28;20822;-66
2021/11/29 05:55:27;;;;;;;280.57;197.17;;;;;;;;;;5012055;28;20445;-66
2021/11/29 05:57:54;;;;;;;11.33;8.20;;;;;;;;;;5011829;28;20443;-61
2021/11/29 06:00:22;;;;;;;9.70;6.73;;;;;;;;;;5010655;28;20484;-65
2021/11/29 06:02:48;;;;;;;8.43;6.43;;;;;;;;;;5011534;28;20456;-65
2021/11/29 06:05:15;;;;;;;8.23;5.60;;;;;;;;;;5010486;28;20436;-69
2021/11/29 06:07:43;;;;;;;6.90;6.00;;;;;;;;;;5020912;28;20606;-66
2021/11/29 06:10:10;;;;;;;8.87;6.47;;;;;;;;;;5031349;28;20436;-64
2021/11/29 06:12:37;;;;;;;15.00;7.77;;;;;;;;;;5031103;28;20431;-63
2021/11/29 06:15:05;;;;;;;11.03;7.10;;;;;;;;;;5031184;28;20451;-67
2021/11/29 06:17:32;;;;;;;135.87;100.30;;;;;;;;;;5029846;28;20976;-63
2021/11/29 06:19:58;;;;;;;38.83;27.80;;;;;;;;;;5032103;28;20476;-66
2021/11/29 06:22:25;;;;;;;13.93;9.20;;;;;;;;;;5029604;28;20439;-68
2021/11/29 06:24:52;;;;;;;12.27;8.83;;;;;;;;;;5031478;28;20451;-69
2021/11/29 06:27:19;;;;;;;13.13;10.13;;;;;;;;;;5030526;28;20824;-63
2021/11/29 06:29:46;;;;;;;13.00;8.37;;;;;;;;;;5030309;28;20424;-62
2021/11/29 06:32:12;;;;;;;11.37;8.00;;;;;;;;;;5029777;28;20529;-67
2021/11/29 06:34:39;;;;;;;11.20;7.57;;;;;;;;;;5028177;28;20448;-64
2021/11/29 06:37:07;;;;;;;11.67;8.13;;;;;;;;;;5028222;28;20451;-67
2021/11/29 06:39:35;;;;;;;12.53;8.10;;;;;;;;;;5028753;28;20537;-68
2021/11/29 06:42:02;;;;;;;11.57;7.83;;;;;;;;;;5028767;28;20451;-65
2021/11/29 06:44:29;;;;;;;13.57;8.10;;;;;;;;;;5030238;28;20899;-67
2021/11/29 06:46:55;;;;;;;12.23;8.57;;;;;;;;;;5030545;28;20462;-64
2021/11/29 06:49:22;;;;;;;12.30;8.50;;;;;;;;;;5031102;28;20446;-65
2021/11/29 06:51:49;;;;;;;12.90;8.07;;;;;;;;;;5030729;28;20522;-69
2021/11/29 06:54:17;;;;;;;13.43;8.47;;;;;;;;;;5031330;28;20444;-66
2021/11/29 06:56:44;;;;;;;12.67;8.70;;;;;;;;;;5030789;28;20444;-65
2021/11/29 06:59:10;;;;;;;12.73;8.40;;;;;;;;;;5030680;28;21016;-69
2021/11/29 07:01:37;;;;;;;13.53;9.30;;;;;;;;;;5029793;28;20815;-67
2021/11/29 07:04:04;;;;;;;17.40;9.37;;;;;;;;;;5030433;28;20439;-65
2021/11/29 07:06:31;;;;;;;20.70;12.30;;;;;;;;;;5030714;28;21064;-66
2021/11/29 07:08:58;;;;;;;16.00;9.63;;;;;;;;;;5030048;28;20874;-68
2021/11/29 07:11:26;;;;;;;14.27;7.83;;;;;;;;;;5030665;28;20521;-66
2021/11/29 07:13:52;;;;;;;10.40;7.57;;;;;;;;;;5030598;28;20440;-68
2021/11/29 07:16:19;;;;;;;8.57;6.87;;;;;;;;;;5031036;28;20452;-64
2021/11/29 07:18:46;;;;;;;11.43;8.57;;;;;;;;;;5030323;28;20434;-65
2021/11/29 07:21:13;;;;;;;9.17;6.40;;;;;;;;;;5030444;28;20868;-67
2021/11/29 07:23:39;;;;;;;8.40;5.87;;;;;;;;;;5030459;28;20446;-67
2021/11/29 07:26:08;;;;;;;9.13;6.20;;;;;;;;;;5029562;28;20514;-65
2021/11/29 07:28:36;;;;;;;8.77;6.20;;;;;;;;;;5030621;28;20569;-68
2021/11/29 07:31:03;;;;;;;10.67;6.43;;;;;;;;;;5030192;28;20631;-64
2021/11/29 07:33:30;;;;;;;15.33;6.90;;;;;;;;;;5030104;28;20491;-67
2021/11/29 07:35:57;;;;;;;13.03;7.00;;;;;;;;;;5030276;28;20884;-65
2021/11/29 07:38:24;;;;;;;11.17;7.20;;;;;;;;;;5030120;28;20478;-66
2021/11/29 07:40:51;;;;;;;12.47;7.97;;;;;;;;;;5030127;28;20484;-66
2021/11/29 07:43:18;;;;;;;10.60;7.80;;;;;;;;;;5030762;28;20786;-66
2021/11/29 07:45:44;;;;;;;16.83;7.70;;;;;;;;;;5030115;28;20985;-66
2021/11/29 07:48:11;;;;;;;13.07;8.30;;;;;;;;;;5029949;28;20823;-65
2021/11/29 07:50:38;;;;;;;11.63;8.40;;;;;;;;;;5030195;28;20504;-65
2021/11/29 07:53:05;;;;;;;15.17;8.90;;;;;;;;;;5029944;28;20543;-67
2021/11/29 07:55:32;;;;;;;13.73;9.40;;;;;;;;;;5029973;28;20454;-67
2021/11/29 07:58:00;;;;;;;13.43;8.90;;;;;;;;;;5029602;28;20977;-65
2021/11/29 08:00:28;;;;;;;14.63;9.63;;;;;;;;;;5030541;28;20472;-66
2021/11/29 08:02:56;;;;;;;14.83;10.37;;;;;;;;;;5029687;28;20863;-68
2021/11/29 08:05:24;;;;;;;17.37;11.43;;;;;;;;;;5029852;28;20455;-68
2021/11/29 08:07:52;;;;;;;17.03;11.50;;;;;;;;;;5028992;28;20472;-69
2021/11/29 08:10:19;;;;;;;16.67;11.90;;;;;;;;;;5029612;28;20444;-68
2021/11/29 08:12:47;;;;;;;15.60;10.33;;;;;;;;;;5029464;28;20455;-66
2021/11/29 08:15:14;;;;;;;19.87;8.87;;;;;;;;;;5029614;28;20918;-66
2021/11/29 08:17:41;;;;;;;7.17;5.10;;;;;;;;;;5029344;28;20436;-65
2021/11/29 08:20:08;;;;;;;9.17;4.40;;;;;;;;;;5029527;28;20975;-63
2021/11/29 08:22:36;;;;;;;5.03;2.80;;;;;;;;;;5028944;28;20470;-67
2021/11/29 08:25:03;;;;;;;7.07;3.47;;;;;;;;;;5029344;28;20459;-68
2021/11/29 08:27:32;;;;;;;4.23;2.60;;;;;;;;;;5029189;28;20810;-66
2021/11/29 08:30:00;;;;;;;7.07;2.90;;;;;;;;;;5029621;28;20428;-66
2021/11/29 08:32:27;;;;;;;5.33;2.23;;;;;;;;;;5029158;28;20431;-69
2021/11/29 08:34:54;;;;;;;3.20;1.93;;;;;;;;;;5029330;28;20435;-66
2021/11/29 08:37:20;;;;;;;3.60;2.03;;;;;;;;;;5031650;28;20435;-67
2021/11/29 08:39:47;;;;;;;5.93;1.60;;;;;;;;;;5033796;28;20436;-69
2021/11/29 08:42:14;;;;;;;4.07;1.90;;;;;;;;;;5032942;28;20478;-69
2021/11/29 08:44:41;;;;;;;2.57;1.90;;;;;;;;;;5033381;28;20433;-67
2021/11/29 08:47:08;;;;;;;4.23;1.70;;;;;;;;;;5032999;28;20461;-65
2021/11/29 08:49:34;;;;;;;4.17;1.27;;;;;;;;;;5033676;28;20482;-63
2021/11/29 08:52:01;;;;;;;3.53;1.50;;;;;;;;;;5031669;28;20789;-65
2021/11/29 08:54:28;;;;;;;2.23;1.40;;;;;;;;;;5033042;28;20432;-68
2021/11/29 08:56:55;;;;;;;3.80;1.50;;;;;;;;;;5033249;28;20431;-68
2021/11/29 08:59:22;;;;;;;8.40;2.00;;;;;;;;;;5033703;28;20515;-64
2021/11/29 09:01:50;;;;;;;2.97;1.50;;;;;;;;;;5033187;28;20600;-63
2021/11/29 09:04:17;;;;;;;3.07;1.40;;;;;;;;;;5032983;28;20439;-65
2021/11/29 09:06:44;;;;;;;3.87;1.40;;;;;;;;;;5032625;28;20989;-66
2021/11/29 09:09:11;;;;;;;4.30;2.17;;;;;;;;;;5033052;28;20455;-67
2021/11/29 09:11:38;;;;;;;2.47;1.87;;;;;;;;;;5033298;28;20538;-68
2021/11/29 09:14:05;;;;;;;2.63;1.47;;;;;;;;;;5032773;28;20805;-65
2021/11/29 09:16:31;;;;;;;1.27;1.17;;;;;;;;;;5033025;28;20547;-65
2021/11/29 09:18:58;;;;;;;7.17;1.33;;;;;;;;;;5032848;28;20444;-68
2021/11/29 09:21:25;;;;;;;1.77;1.40;;;;;;;;;;5033469;28;20574;-63
2021/11/29 09:23:52;;;;;;;6.17;2.00;;;;;;;;;;5030914;28;20941;-66
2021/11/29 09:26:19;;;;;;;4.13;1.83;;;;;;;;;;5032979;28;20534;-65
2021/11/29 09:28:46;;;;;;;3.57;1.70;;;;;;;;;;5032230;28;20443;-66
2021/11/29 09:31:12;;;;;;;3.47;2.03;;;;;;;;;;5033051;28;20454;-63
2021/11/29 09:33:40;;;;;;;3.80;2.23;;;;;;;;;;5032540;28;20458;-65
2021/11/29 09:36:07;;;;;;;4.33;2.20;;;;;;;;;;5032941;28;20470;-64
2021/11/29 09:38:34;;;;;;;4.83;2.37;;;;;;;;;;5032100;28;20526;-64
2021/11/29 09:41:03;;;;;;;3.67;2.40;;;;;;;;;;5031359;28;20464;-65
2021/11/29 09:43:31;;;;;;;3.37;2.33;;;;;;;;;;5032086;28;20487;-66
2021/11/29 09:45:59;;;;;;;3.40;2.30;;;;;;;;;;5032911;28;20428;-65
2021/11/29 09:48:26;;;;;;;20.53;6.53;;;;;;;;;;5031152;28;20431;-61
2021/11/29 09:50:54;;;;;;;4.50;3.30;;;;;;;;;;5032362;28;20444;-65
2021/11/29 09:53:22;;;;;;;4.93;3.17;;;;;;;;;;5031903;28;20951;-63
2021/11/29 09:55:49;;;;;;;7.33;3.40;;;;;;;;;;5032353;28;20462;-67
2021/11/29 09:58:16;;;;;;;5.17;3.17;;;;;;;;;;5031457;28;20480;-64
2021/11/29 10:00:44;;;;;;;6.87;3.40;;;;;;;;;;5032281;28;20472;-66
2021/11/29 10:03:11;;;;;;;8.03;3.20;;;;;;;;;;5032185;28;20436;-67
2021/11/29 10:05:38;;;;;;;6.73;3.10;;;;;;;;;;5032101;28;20810;-63
2021/11/29 10:08:24;;;;;;;6.23;2.97;;;;;;;;;;5031547;28;20623;-68
2021/11/29 10:11:12;;;;;;;7.50;2.87;;;;;;;;;;5032156;28;21034;-67
2021/11/29 10:13:45;;;;;;;6.50;3.13;;;;;;;;;;5031527;28;20450;-65
2021/11/29 10:16:12;;;;;;;5.27;3.43;;;;;;;;;;5032127;28;20436;-70
2021/11/29 10:18:39;;;;;;;7.20;3.83;;;;;;;;;;5031537;28;20574;-65
2021/11/29 10:21:07;;;;;;;5.20;3.10;;;;;;;;;;5031635;28;20478;-66
2021/11/29 10:23:37;;;;;;;4.07;2.77;;;;;;;;;;5032550;28;20470;-67
2021/11/29 10:26:07;;;;;;;3.07;2.37;;;;;;;;;;5034531;28;20424;-67
2021/11/29 10:28:35;;;;;;;3.23;2.30;;;;;;;;;;5032301;28;20439;-66
2021/11/29 10:31:35;;;;;;;8.83;2.70;;;;;;;;;;5031379;28;20474;-65
2021/11/29 10:34:04;;;;;;;5.20;3.03;;;;;;;;;;5032779;28;20452;-64
2021/11/29 10:36:37;;;;;;;4.00;2.50;;;;;;;;;;5032956;28;20444;-64
2021/11/29 10:39:10;;;;;;;5.10;2.30;;;;;;;;;;5031262;28;20450;-67
2021/11/29 10:41:39;;;;;;;6.73;2.57;;;;;;;;;;5030415;28;20541;-68
2021/11/29 10:44:07;;;;;;;4.70;2.30;;;;;;;;;;5031198;28;20439;-65
2021/11/29 10:46:35;;;;;;;4.40;2.23;;;;;;;;;;5031712;28;20498;-68
2021/11/29 10:49:08;;;;;;;3.83;2.43;;;;;;;;;;5031088;28;20546;-68
2021/11/29 10:51:35;;;;;;;4.00;2.53;;;;;;;;;;5031357;28;20447;-64
2021/11/29 10:54:04;;;;;;;2.90;2.00;;;;;;;;;;5031164;28;20436;-66
2021/11/29 10:56:32;;;;;;;3.50;2.27;;;;;;;;;;5031468;28;20428;-66
2021/11/29 10:59:00;;;;;;;4.03;2.03;;;;;;;;;;5030857;28;20605;-64
2021/11/29 11:01:32;;;;;;;3.77;1.80;;;;;;;;;;5031379;28;20476;-63
2021/11/29 11:04:00;;;;;;;2.40;1.80;;;;;;;;;;5030755;28;20951;-63
2021/11/29 11:06:30;;;;;;;3.20;1.97;;;;;;;;;;5031365;28;20816;-63
2021/11/29 11:08:56;;;;;;;4.23;2.43;;;;;;;;;;5030539;28;20945;-66
2021/11/29 11:11:31;;;;;;;4.73;2.33;;;;;;;;;;5031129;28;20440;-63
2021/11/29 11:13:59;;;;;;;3.80;2.20;;;;;;;;;;5030450;28;20443;-69
2021/11/29 11:16:44;;;;;;;3.67;2.37;;;;;;;;;;5031071;28;20447;-67
2021/11/29 11:19:20;;;;;;;9.70;2.70;;;;;;;;;;5031036;28;20447;-67
2021/11/29 11:21:47;;;;;;;4.67;3.10;;;;;;;;;;5030171;28;20529;-70
2021/11/29 11:24:17;;;;;;;4.80;3.47;;;;;;;;;;5030715;28;20442;-66
2021/11/29 11:26:45;;;;;;;8.33;3.50;;;;;;;;;;5030761;28;20462;-68
2021/11/29 11:29:29;;;;;;;10.90;4.00;;;;;;;;;;5031098;28;20423;-66
2021/11/29 11:32:09;;;;;;;9.70;3.97;;;;;;;;;;5030128;28;20962;-68
2021/11/29 11:34:37;;;;;;;4.63;3.17;;;;;;;;;;5029843;28;20450;-66
2021/11/29 11:37:04;;;;;;;6.17;3.30;;;;;;;;;;5030369;28;20444;-67
2021/11/29 11:39:31;;;;;;;6.23;3.50;;;;;;;;;;5030727;28;20447;-64
2021/11/29 11:41:58;;;;;;;5.03;3.00;;;;;;;;;;5030091;28;20475;-66
2021/11/29 11:44:25;;;;;;;8.63;3.40;;;;;;;;;;5030084;28;20428;-63
2021/11/29 11:46:54;;;;;;;4.23;2.70;;;;;;;;;;5029887;28;20432;-66
2021/11/29 11:49:21;;;;;;;5.23;3.20;;;;;;;;;;5030802;28;20443;-64
2021/11/29 11:51:48;;;;;;;3.77;2.40;;;;;;;;;;5029625;28;20446;-65
2021/11/29 11:54:15;;;;;;;5.27;2.33;;;;;;;;;;5030548;28;20455;-67
2021/11/29 11:57:03;;;;;;;5.00;2.57;;;;;;;;;;5029618;28;20507;-65
2021/11/29 11:59:34;;;;;;;4.80;2.50;;;;;;;;;;5029659;28;20455;-67
2021/11/29 12:02:02;;;;;;;4.00;2.20;;;;;;;;;;5029673;28;20539;-63
2021/11/29 12:04:30;;;;;;;6.40;2.13;;;;;;;;;;5030003;28;20440;-67
2021/11/29 12:06:56;;;;;;;6.17;2.80;;;;;;;;;;5029034;28;20471;-67
2021/11/29 12:09:31;;;;;;;12.40;8.30;;;;;;;;;;5029761;28;20432;-68
2021/11/29 12:12:05;;;;;;;7.17;4.90;;;;;;;;;;5028915;28;20443;-64
2021/11/29 12:14:34;;;;;;;5.53;3.23;;;;;;;;;;5028746;28;20439;-68
2021/11/29 12:17:16;;;;;;;42.00;28.80;;;;;;;;;;5045096;28;21553;-67
2021/11/29 12:19:45;;;;;;;4.83;3.00;;;;;;;;;;5030496;28;20494;-68
2021/11/29 12:22:15;;;;;;;7.87;3.67;;;;;;;;;;5029039;28;20849;-65
2021/11/29 12:24:49;;;;;;;8.33;3.93;;;;;;;;;;5029326;28;20440;-66
2021/11/29 12:27:16;;;;;;;10.17;5.47;;;;;;;;;;5029341;28;20833;-65
2021/11/29 12:29:45;;;;;;;8.20;4.50;;;;;;;;;;5029397;28;20854;-66
2021/11/29 12:32:13;;;;;;;8.43;4.00;;;;;;;;;;5029225;28;20834;-70
2021/11/29 12:34:52;;;;;;;5.77;3.93;;;;;;;;;;5029706;28;21000;-65
2021/11/29 12:37:30;;;;;;;6.30;3.60;;;;;;;;;;5029752;28;20440;-65
2021/11/29 12:39:56;;;;;;;10.60;6.93;;;;;;;;;;5029755;28;20446;-62
2021/11/29 12:42:25;;;;;;;12.30;7.37;;;;;;;;;;5028757;28;20498;-69
2021/11/29 12:44:56;;;;;;;8.03;5.70;;;;;;;;;;5028937;28;20819;-69
2021/11/29 12:47:26;;;;;;;3.70;2.97;;;;;;;;;;5029155;28;20440;-65
2021/11/29 12:49:54;;;;;;;8.60;3.80;;;;;;;;;;5027816;28;20446;-68
2021/11/29 12:52:27;;;;;;;7.13;3.97;;;;;;;;;;5028751;28;20428;-67
2021/11/29 12:54:54;;;;;;;6.10;3.43;;;;;;;;;;5029700;28;20827;-67
2021/11/29 12:57:22;;;;;;;6.60;4.20;;;;;;;;;;5029391;28;20638;-67
2021/11/29 12:59:55;;;;;;;4.67;3.50;;;;;;;;;;5029846;28;20807;-65
2021/11/29 13:02:34;;;;;;;5.20;3.60;;;;;;;;;;5029122;28;20484;-65
2021/11/29 13:05:00;;;;;;;7.63;4.50;;;;;;;;;;5029229;28;20478;-68
2021/11/29 13:07:46;;;;;;;9.23;4.47;;;;;;;;;;5028532;28;20486;-65
2021/11/29 13:10:45;;;;;;;6.00;3.80;;;;;;;;;;5028703;28;21025;-65
2021/11/29 13:13:24;;;;;;;4.90;3.80;;;;;;;;;;5038175;28;20837;-63
2021/11/29 13:15:58;;;;;;;6.80;4.03;;;;;;;;;;5029294;28;20555;-65
2021/11/29 13:21:54;;;;;;;8.47;3.93;;;;;;;;;;5028026;28;20507;-62
2021/11/29 13:24:32;;;;;;;3.37;2.03;;;;;;;;;;5032347;28;20466;-64
2021/11/29 13:27:04;;;;;;;2.27;1.83;;;;;;;;;;5032376;28;20980;-63
2021/11/29 13:29:34;;;;;;;7.80;5.28;;;;;;;;;;5032550;28;21054;-63
2021/11/29 13:32:03;;;;;;;7.67;4.50;;;;;;;;;;5032056;28;20579;-66
2021/11/29 13:34:35;;;;;;;5.60;4.23;;;;;;;;;;5032688;28;20448;-65
2021/11/29 13:37:03;;;;;;;7.33;4.70;;;;;;;;;;5032426;28;20461;-65
2021/11/29 13:39:31;;;;;;;6.83;4.80;;;;;;;;;;5032767;28;20836;-67
2021/11/29 13:42:18;;;;;;;8.70;5.70;;;;;;;;;;5032423;28;20479;-65
2021/11/29 13:45:06;;;;;;;6.43;4.60;;;;;;;;;;5032532;28;21027;-67
2021/11/29 13:47:34;;;;;;;10.60;5.60;;;;;;;;;;5031974;28;20435;-64
2021/11/29 13:50:15;;;;;;;28.03;12.40;;;;;;;;;;5032333;28;20436;-66
2021/11/29 13:52:44;;;;;;;10.30;5.90;;;;;;;;;;5031619;28;20459;-63
2021/11/29 13:55:16;;;;;;;6.47;4.70;;;;;;;;;;5032350;28;20981;-64
2021/11/29 13:57:45;;;;;;;9.20;4.93;;;;;;;;;;5031937;28;20444;-66
2021/11/29 14:00:18;;;;;;;11.80;5.80;;;;;;;;;;5032360;28;20424;-65
2021/11/29 14:02:46;;;;;;;6.90;4.40;;;;;;;;;;5032107;28;20483;-66
2021/11/29 14:05:13;;;;;;;8.57;4.93;;;;;;;;;;5032004;28;20439;-69
2021/11/29 14:07:53;;;;;;;11.43;6.93;;;;;;;;;;5031213;28;20894;-64
2021/11/29 14:10:32;;;;;;;171.30;121.80;;;;;;;;;;5031730;28;20435;-66
2021/11/29 14:12:59;;;;;;;13.13;9.73;;;;;;;;;;5031527;28;20451;-67
2021/11/29 14:15:30;;;;;;;13.63;8.77;;;;;;;;;;5031901;28;20539;-65
2021/11/29 14:17:58;;;;;;;11.10;7.33;;;;;;;;;;5031801;28;20444;-67
2021/11/29 14:20:26;;;;;;;9.90;7.60;;;;;;;;;;5031534;28;20435;-64
2021/11/29 14:22:54;;;;;;;9.23;6.47;;;;;;;;;;5031062;28;20476;-66
2021/11/29 14:25:21;;;;;;;7.40;5.47;;;;;;;;;;5031522;28;20447;-67
2021/11/29 14:27:48;;;;;;;7.80;5.47;;;;;;;;;;5031813;28;21471;-63
2021/11/29 14:30:15;;;;;;;15.93;7.90;;;;;;;;;;5030645;28;20444;-64
2021/11/29 14:32:42;;;;;;;10.50;7.00;;;;;;;;;;5031722;28;20436;-64
2021/11/29 14:35:10;;;;;;;14.47;8.97;;;;;;;;;;5031023;28;20455;-63
2021/11/29 14:37:39;;;;;;;25.83;15.50;;;;;;;;;;5031146;28;20484;-67
2021/11/29 14:40:07;;;;;;;18.73;12.20;;;;;;;;;;5031801;28;20976;-65
2021/11/29 14:42:39;;;;;;;11.97;6.93;;;;;;;;;;5030926;28;20479;-67